createdAt,value
2018-06-03T00:01:30.152Z,79.30
2018-06-03T00:03:58.992Z,79.70
2018-06-03T00:06:27.832Z,79.71
2018-06-03T00:08:56.659Z,80.06
2018-06-03T00:11:25.501Z,80.00
2018-06-03T00:13:54.341Z,80.62
2018-06-03T00:16:23.172Z,80.41
2018-06-03T00:18:52.020Z,80.66
2018-06-03T00:21:43.139Z,80.58
2018-06-03T00:24:12.178Z,80.49
2018-06-03T00:26:41.013Z,80.27
2018-06-03T00:29:09.854Z,80.29
2018-06-03T00:31:38.700Z,80.04
2018-06-03T00:34:07.549Z,80.24
2018-06-03T00:36:48.757Z,80.26
2018-06-03T00:39:17.533Z,80.25
2018-06-03T00:41:46.379Z,80.27
2018-06-03T00:44:15.252Z,80.24
2018-06-03T00:46:44.066Z,80.18
2018-06-03T00:49:12.913Z,80.50
2018-06-03T00:51:41.756Z,80.41
2018-06-03T00:54:10.593Z,80.30
2018-06-03T00:57:09.839Z,80.24
2018-06-03T00:59:39.313Z,80.42
2018-06-03T01:02:08.453Z,80.34
2018-06-03T01:04:37.305Z,79.06
2018-06-03T01:07:06.143Z,79.99
2018-06-03T01:09:34.993Z,79.84
2018-06-03T01:12:03.850Z,80.01
2018-06-03T01:14:32.688Z,79.88
2018-06-03T01:17:01.668Z,79.97
2018-06-03T01:19:30.541Z,79.95
2018-06-03T01:21:59.400Z,78.53
2018-06-03T01:24:28.236Z,77.74
2018-06-03T01:26:57.090Z,79.11
2018-06-03T01:29:25.921Z,79.41
2018-06-03T01:31:54.768Z,77.88
2018-06-03T01:34:23.607Z,78.88
2018-06-03T01:36:52.450Z,79.37
2018-06-03T01:39:21.305Z,79.47
2018-06-03T01:41:50.140Z,79.71
2018-06-03T01:44:18.959Z,79.58
2018-06-03T01:46:47.803Z,79.69
2018-06-03T01:49:16.656Z,79.76
2018-06-03T01:51:45.527Z,80.21
2018-06-03T01:54:14.367Z,80.35
2018-06-03T01:56:43.209Z,80.30
2018-06-03T01:59:12.051Z,80.28
2018-06-03T02:01:40.888Z,80.38
2018-06-03T02:04:09.748Z,80.69
2018-06-03T02:06:38.619Z,80.79
2018-06-03T02:09:07.676Z,80.62
2018-06-03T02:11:36.533Z,80.62
2018-06-03T02:14:05.375Z,80.74
2018-06-03T02:16:34.385Z,80.69
2018-06-03T02:19:03.221Z,80.90
2018-06-03T02:21:32.096Z,80.83
2018-06-03T02:24:00.920Z,81.07
2018-06-03T02:26:29.770Z,80.96
2018-06-03T02:28:58.650Z,80.93
2018-06-03T02:31:27.479Z,80.87
2018-06-03T02:33:56.358Z,80.85
2018-06-03T02:36:25.235Z,80.87
2018-06-03T02:38:54.081Z,80.92
2018-06-03T02:41:22.916Z,80.84
2018-06-03T02:43:51.757Z,80.78
2018-06-03T02:46:20.607Z,80.99
2018-06-03T02:48:50.264Z,80.81
2018-06-03T02:51:19.104Z,80.93
2018-06-03T02:53:47.988Z,80.70
2018-06-03T02:56:17.683Z,80.87
2018-06-03T02:58:46.549Z,80.78
2018-06-03T03:01:15.384Z,80.83
2018-06-03T03:03:44.219Z,80.77
2018-06-03T03:06:13.081Z,81.01
2018-06-03T03:08:41.937Z,80.85
2018-06-03T03:11:10.776Z,80.97
2018-06-03T03:13:39.623Z,81.03
2018-06-03T03:16:08.481Z,81.05
2018-06-03T03:18:37.331Z,81.04
2018-06-03T03:21:06.174Z,80.92
2018-06-03T03:23:34.998Z,81.00
2018-06-03T03:26:03.838Z,81.22
2018-06-03T03:28:32.684Z,80.90
2018-06-03T03:31:01.551Z,80.82
2018-06-03T03:33:30.402Z,80.62
2018-06-03T03:35:59.302Z,80.62
2018-06-03T03:38:28.156Z,79.02
2018-06-03T03:40:57.006Z,78.44
2018-06-03T03:43:25.868Z,79.74
2018-06-03T03:45:54.696Z,79.90
2018-06-03T03:48:23.556Z,79.94
2018-06-03T03:50:52.378Z,80.10
2018-06-03T03:53:21.337Z,78.29
2018-06-03T03:55:50.164Z,79.22
2018-06-03T03:58:19.524Z,79.50
2018-06-03T04:00:48.371Z,79.58
2018-06-03T04:03:17.225Z,78.14
2018-06-03T04:05:46.086Z,79.20
2018-06-03T04:08:14.920Z,79.34
2018-06-03T04:10:43.779Z,79.14
2018-06-03T04:13:12.613Z,79.28
2018-06-03T04:15:41.444Z,79.23
2018-06-03T04:18:10.250Z,79.18
2018-06-03T04:20:39.096Z,79.19
2018-06-03T04:23:07.926Z,79.08
2018-06-03T04:25:36.764Z,79.43
2018-06-03T04:28:05.611Z,79.39
2018-06-03T04:30:34.425Z,77.73
2018-06-03T04:33:03.318Z,78.55
2018-06-03T04:35:32.136Z,78.72
2018-06-03T04:38:01.007Z,78.18
2018-06-03T04:40:29.840Z,78.28
2018-06-03T04:42:58.658Z,78.77
2018-06-03T04:45:27.502Z,78.53
2018-06-03T04:47:56.392Z,78.80
2018-06-03T04:50:25.232Z,78.68
2018-06-03T04:52:54.058Z,76.59
2018-06-03T04:55:22.892Z,77.89
2018-06-03T04:57:51.756Z,78.05
2018-06-03T05:00:20.712Z,77.95
2018-06-03T05:02:49.560Z,78.02
2018-06-03T05:05:18.391Z,78.26
2018-06-03T05:07:47.226Z,78.01
2018-06-03T05:10:16.089Z,77.88
2018-06-03T05:12:44.918Z,77.61
2018-06-03T05:15:13.780Z,77.54
2018-06-03T05:17:42.592Z,78.09
2018-06-03T05:20:11.536Z,78.06
2018-06-03T05:22:40.375Z,77.24
2018-06-03T05:25:09.254Z,76.67
2018-06-03T05:27:38.098Z,76.38
2018-06-03T05:30:06.945Z,75.79
2018-06-03T05:32:35.786Z,75.77
2018-06-03T05:35:04.609Z,75.86
2018-06-03T05:37:33.497Z,75.70
2018-06-03T05:40:02.310Z,75.76
2018-06-03T05:42:31.225Z,75.57
2018-06-03T05:45:00.054Z,75.18
2018-06-03T05:47:28.898Z,75.44
2018-06-03T05:49:57.744Z,75.47
2018-06-03T05:52:27.666Z,75.44
2018-06-03T05:54:56.505Z,74.01
2018-06-03T05:57:25.395Z,74.89
2018-06-03T05:59:54.234Z,74.71
2018-06-03T06:02:23.090Z,75.04
2018-06-03T06:04:51.935Z,74.95
2018-06-03T06:07:20.801Z,74.92
2018-06-03T06:09:49.653Z,75.18
2018-06-03T06:12:18.807Z,74.39
2018-06-03T06:14:47.644Z,73.92
2018-06-03T06:17:16.472Z,73.80
2018-06-03T06:19:45.348Z,74.16
2018-06-03T06:22:14.230Z,73.86
2018-06-03T06:24:43.055Z,73.19
2018-06-03T06:27:11.922Z,70.95
2018-06-03T06:29:40.805Z,71.84
2018-06-03T06:32:09.681Z,71.60
2018-06-03T06:34:38.524Z,71.91
2018-06-03T06:37:07.364Z,71.40
2018-06-03T06:39:36.189Z,70.26
2018-06-03T06:42:05.054Z,68.79
2018-06-03T06:44:33.899Z,68.95
2018-06-03T06:47:02.743Z,68.72
2018-06-03T06:49:31.606Z,68.79
2018-06-03T06:52:00.433Z,68.76
2018-06-03T06:54:29.286Z,68.76
2018-06-03T06:56:58.149Z,68.50
2018-06-03T06:59:26.994Z,67.94
2018-06-03T07:01:55.871Z,67.71
2018-06-03T07:04:24.717Z,67.43
2018-06-03T07:06:53.576Z,67.46
2018-06-03T07:09:22.444Z,66.91
2018-06-03T07:11:51.318Z,66.40
2018-06-03T07:14:20.308Z,64.65
2018-06-03T07:16:49.185Z,64.34
2018-06-03T07:19:18.037Z,65.21
2018-06-03T07:21:46.920Z,65.55
2018-06-03T07:24:15.787Z,64.60
2018-06-03T07:26:44.883Z,65.03
2018-06-03T07:29:13.776Z,64.55
2018-06-03T07:31:42.621Z,64.66
2018-06-03T07:34:11.469Z,64.37
2018-06-03T07:36:40.321Z,64.55
2018-06-03T07:39:09.157Z,64.29
2018-06-03T07:41:38.022Z,64.80
2018-06-03T07:44:06.865Z,64.25
2018-06-03T07:46:35.711Z,63.30
2018-06-03T07:49:04.569Z,63.49
2018-06-03T07:51:33.407Z,63.34
2018-06-03T07:54:02.279Z,63.18
2018-06-03T07:56:31.089Z,62.06
2018-06-03T07:58:59.946Z,61.17
2018-06-03T08:01:28.770Z,60.55
2018-06-03T08:03:57.633Z,59.90
2018-06-03T08:06:26.462Z,60.10
2018-06-03T08:08:55.355Z,59.34
2018-06-03T08:11:24.176Z,58.51
2018-06-03T08:13:53.029Z,57.72
2018-06-03T08:16:22.022Z,56.42
2018-06-03T08:18:50.861Z,54.16
2018-06-03T08:21:19.712Z,53.75
2018-06-03T08:23:48.534Z,55.03
2018-06-03T08:26:17.368Z,53.99
2018-06-03T08:28:46.193Z,52.73
2018-06-03T08:31:15.007Z,52.50
2018-06-03T08:33:43.857Z,52.13
2018-06-03T08:36:12.705Z,52.78
2018-06-03T08:38:41.534Z,52.47
2018-06-03T08:41:10.392Z,53.02
2018-06-03T08:43:39.209Z,52.19
2018-06-03T08:46:08.032Z,51.99
2018-06-03T08:48:36.859Z,52.88
2018-06-03T08:51:05.721Z,52.48
2018-06-03T08:53:34.567Z,52.38
2018-06-03T08:56:03.404Z,52.40
2018-06-03T08:58:32.265Z,52.20
2018-06-03T09:01:01.096Z,52.56
2018-06-03T09:03:29.944Z,50.41
2018-06-03T09:05:58.770Z,52.64
2018-06-03T09:08:27.597Z,51.09
2018-06-03T09:10:56.440Z,52.06
2018-06-03T09:13:25.281Z,50.92
2018-06-03T09:15:54.183Z,51.65
2018-06-03T09:18:23.000Z,53.29
2018-06-03T09:20:51.878Z,52.01
2018-06-03T09:23:20.692Z,53.20
2018-06-03T09:25:49.558Z,54.47
2018-06-03T09:28:18.358Z,54.37
2018-06-03T09:30:47.190Z,53.91
2018-06-03T09:33:16.034Z,53.75
2018-06-03T09:35:44.870Z,54.32
2018-06-03T09:38:13.703Z,54.87
2018-06-03T09:40:42.546Z,55.20
2018-06-03T09:43:11.395Z,55.54
2018-06-03T09:45:40.225Z,55.31
2018-06-03T09:48:09.071Z,55.82
2018-06-03T09:50:37.900Z,53.56
2018-06-03T09:53:06.966Z,53.30
2018-06-03T09:55:35.783Z,52.41
2018-06-03T09:58:04.654Z,53.05
2018-06-03T10:00:33.748Z,53.27
2018-06-03T10:03:02.869Z,53.24
2018-06-03T10:05:31.707Z,53.79
2018-06-03T10:08:00.559Z,54.50
2018-06-03T10:10:29.410Z,54.22
2018-06-03T10:12:58.235Z,54.91
2018-06-03T10:15:27.090Z,55.93
2018-06-03T10:17:55.929Z,55.62
2018-06-03T10:20:24.762Z,55.27
2018-06-03T10:22:53.626Z,54.07
2018-06-03T10:25:22.481Z,53.34
2018-06-03T10:27:51.314Z,52.36
2018-06-03T10:30:20.174Z,51.03
2018-06-03T10:32:49.070Z,49.54
2018-06-03T10:35:17.942Z,48.49
2018-06-03T10:37:46.762Z,46.75
2018-06-03T10:40:15.588Z,44.76
2018-06-03T10:42:44.436Z,43.93
2018-06-03T10:45:13.284Z,45.45
2018-06-03T10:47:42.102Z,43.67
2018-06-03T10:50:10.930Z,45.50
2018-06-03T10:52:39.793Z,47.01
2018-06-03T10:55:08.636Z,47.89
2018-06-03T10:57:37.454Z,48.23
2018-06-03T11:00:06.370Z,49.32
2018-06-03T11:02:35.203Z,49.05
2018-06-03T11:05:04.068Z,47.97
2018-06-03T11:07:32.910Z,48.09
2018-06-03T11:10:01.763Z,47.83
2018-06-03T11:12:30.591Z,48.11
2018-06-03T11:14:59.495Z,49.22
2018-06-03T11:17:28.256Z,46.25
2018-06-03T11:19:57.093Z,46.91
2018-06-03T11:22:25.923Z,46.25
2018-06-03T11:24:54.833Z,43.29
2018-06-03T11:27:23.664Z,42.30
2018-06-03T11:29:52.521Z,41.07
2018-06-03T11:32:21.396Z,37.73
2018-06-03T11:34:50.249Z,38.83
2018-06-03T11:37:19.111Z,40.72
2018-06-03T11:39:47.949Z,41.84
2018-06-03T11:42:16.798Z,43.04
2018-06-03T11:44:45.666Z,44.50
2018-06-03T11:47:14.519Z,45.36
2018-06-03T11:49:43.357Z,44.00
2018-06-03T11:52:12.203Z,43.42
2018-06-03T11:54:41.037Z,44.82
2018-06-03T11:57:09.933Z,43.49
2018-06-03T11:59:45.082Z,44.28
2018-06-03T12:02:15.433Z,44.30
2018-06-03T12:04:44.341Z,44.81
2018-06-03T12:07:13.124Z,46.73
2018-06-03T12:09:41.954Z,46.88
2018-06-03T12:12:10.851Z,47.29
2018-06-03T12:14:39.830Z,47.34
2018-06-03T12:17:08.626Z,46.06
2018-06-03T12:19:37.620Z,45.21
2018-06-03T12:22:06.474Z,44.08
2018-06-03T12:24:35.304Z,42.89
2018-06-03T12:27:04.158Z,42.73
2018-06-03T12:29:32.997Z,41.39
2018-06-03T12:32:01.860Z,41.67
2018-06-03T12:34:30.741Z,43.30
2018-06-03T12:36:59.572Z,42.78
2018-06-03T12:39:28.481Z,42.79
2018-06-03T12:41:57.341Z,44.04
2018-06-03T12:44:26.205Z,44.99
2018-06-03T12:46:55.058Z,45.20
2018-06-03T12:49:24.088Z,45.92
2018-06-03T12:51:53.017Z,45.34
2018-06-03T12:54:21.876Z,46.73
2018-06-03T12:56:50.772Z,48.08
2018-06-03T12:59:19.667Z,49.42
2018-06-03T13:01:48.553Z,47.36
2018-06-03T13:04:17.424Z,48.22
2018-06-03T13:06:46.264Z,47.21
2018-06-03T13:09:15.134Z,48.76
2018-06-03T13:11:44.002Z,47.50
2018-06-03T13:14:12.941Z,46.13
2018-06-03T13:16:41.805Z,45.19
2018-06-03T13:19:10.694Z,45.41
2018-06-03T13:21:39.517Z,46.87
2018-06-03T13:24:08.507Z,48.81
2018-06-03T13:26:37.351Z,50.48
2018-06-03T13:29:06.224Z,50.89
2018-06-03T13:31:35.067Z,52.00
2018-06-03T13:34:03.897Z,51.68
2018-06-03T13:36:32.762Z,52.84
2018-06-03T13:39:01.616Z,53.02
2018-06-03T13:41:30.471Z,53.79
2018-06-03T13:43:59.331Z,54.43
2018-06-03T13:46:28.261Z,55.42
2018-06-03T13:48:57.023Z,55.96
2018-06-03T13:51:25.899Z,55.64
2018-06-03T13:53:54.688Z,55.75
2018-06-03T13:56:23.513Z,54.49
2018-06-03T13:58:52.389Z,55.77
2018-06-03T14:01:21.207Z,55.64
2018-06-03T14:03:50.108Z,56.78
2018-06-03T14:06:18.953Z,56.84
2018-06-03T14:08:47.830Z,57.33
2018-06-03T14:11:16.733Z,58.11
2018-06-03T14:13:45.579Z,58.52
2018-06-03T14:16:14.424Z,58.46
2018-06-03T14:18:43.293Z,57.43
2018-06-03T14:21:12.226Z,59.03
2018-06-03T14:23:41.036Z,56.66
2018-06-03T14:26:09.917Z,57.69
2018-06-03T14:28:38.740Z,58.44
2018-06-03T14:31:07.578Z,56.92
2018-06-03T14:33:36.391Z,56.87
2018-06-03T14:36:05.410Z,57.13
2018-06-03T14:38:34.250Z,56.76
2018-06-03T14:41:03.091Z,57.76
2018-06-03T14:43:31.945Z,56.70
2018-06-03T14:46:00.786Z,57.31
2018-06-03T14:48:29.599Z,57.07
2018-06-03T14:50:58.431Z,56.02
2018-06-03T14:53:27.295Z,55.46
2018-06-03T14:55:56.124Z,53.40
2018-06-03T14:58:24.968Z,52.51
2018-06-03T15:00:53.818Z,51.78
2018-06-03T15:03:22.663Z,50.92
2018-06-03T15:05:51.518Z,49.19
2018-06-03T15:08:20.355Z,47.95
2018-06-03T15:10:49.210Z,47.15
2018-06-03T15:13:18.067Z,45.58
2018-06-03T15:15:46.882Z,45.04
2018-06-03T15:18:15.728Z,45.78
2018-06-03T15:20:44.578Z,46.00
2018-06-03T15:23:13.423Z,45.16
2018-06-03T15:25:42.278Z,44.60
2018-06-03T15:28:11.172Z,43.00
2018-06-03T15:30:40.030Z,43.61
2018-06-03T15:33:08.888Z,43.57
2018-06-03T15:35:37.747Z,44.66
2018-06-03T15:38:06.593Z,44.29
2018-06-03T15:40:35.417Z,44.28
2018-06-03T15:43:04.240Z,44.38
2018-06-03T15:45:33.127Z,44.28
2018-06-03T15:48:02.436Z,44.60
2018-06-03T15:50:31.339Z,44.71
2018-06-03T15:53:00.197Z,44.34
2018-06-03T15:55:29.036Z,45.55
2018-06-03T15:57:57.881Z,44.49
2018-06-03T16:00:27.113Z,44.24
2018-06-03T16:02:56.047Z,44.87
2018-06-03T16:05:24.764Z,46.08
2018-06-03T16:07:53.605Z,46.29
2018-06-03T16:10:22.582Z,45.39
2018-06-03T16:12:51.584Z,46.11
2018-06-03T16:15:20.430Z,45.82
2018-06-03T16:17:49.264Z,45.12
2018-06-03T16:20:18.101Z,44.70
2018-06-03T16:22:47.254Z,45.89
2018-06-03T16:25:16.125Z,46.78
2018-06-03T16:27:45.009Z,47.51
2018-06-03T16:30:13.797Z,47.00
2018-06-03T16:32:42.689Z,46.56
2018-06-03T16:35:11.580Z,46.90
2018-06-03T16:37:40.422Z,47.22
2018-06-03T16:40:09.267Z,47.13
2018-06-03T16:42:38.133Z,46.36
2018-06-03T16:45:07.031Z,47.29
2018-06-03T16:47:35.904Z,46.92
2018-06-03T16:50:04.732Z,47.89
2018-06-03T16:52:33.572Z,47.17
2018-06-03T16:55:02.444Z,47.18
2018-06-03T16:57:31.266Z,46.08
2018-06-03T17:00:00.072Z,46.39
2018-06-03T17:02:28.930Z,46.75
2018-06-03T17:04:57.759Z,46.71
2018-06-03T17:07:26.612Z,47.52
2018-06-03T17:09:55.433Z,48.27
2018-06-03T17:12:24.272Z,48.28
2018-06-03T17:14:53.173Z,48.14
2018-06-03T17:17:21.936Z,48.26
2018-06-03T17:19:50.778Z,48.38
2018-06-03T17:22:19.618Z,48.84
2018-06-03T17:24:48.451Z,49.68
2018-06-03T17:27:17.340Z,50.25
2018-06-03T17:29:46.124Z,50.69
2018-06-03T17:32:14.952Z,51.02
2018-06-03T17:34:43.804Z,51.11
2018-06-03T17:37:12.610Z,51.55
2018-06-03T17:39:41.469Z,52.35
2018-06-03T17:42:10.691Z,53.43
2018-06-03T17:44:39.554Z,52.82
2018-06-03T17:47:08.380Z,53.13
2018-06-03T17:49:37.233Z,53.29
2018-06-03T17:52:06.175Z,54.79
2018-06-03T17:54:35.026Z,54.70
2018-06-03T17:57:03.900Z,56.74
2018-06-03T17:59:32.712Z,55.32
2018-06-03T18:02:01.572Z,55.23
2018-06-03T18:04:30.424Z,54.76
2018-06-03T18:06:59.262Z,55.43
2018-06-03T18:09:28.073Z,55.56
2018-06-03T18:11:57.170Z,55.80
2018-06-03T18:14:26.006Z,55.80
2018-06-03T18:16:54.906Z,56.18
2018-06-03T18:19:23.724Z,56.43
2018-06-03T18:21:52.564Z,57.01
2018-06-03T18:24:21.415Z,56.57
2018-06-03T18:26:50.298Z,56.68
2018-06-03T18:29:19.044Z,56.35
2018-06-03T18:31:47.872Z,56.17
2018-06-03T18:34:16.708Z,56.73
2018-06-03T18:36:45.546Z,56.82
2018-06-03T18:39:14.360Z,57.51
2018-06-03T18:41:43.200Z,57.55
2018-06-03T18:44:12.026Z,57.61
2018-06-03T18:46:40.870Z,57.28
2018-06-03T18:49:09.692Z,57.74
2018-06-03T18:51:38.542Z,57.98
2018-06-03T18:54:07.364Z,58.49
2018-06-03T18:56:36.169Z,58.88
2018-06-03T18:59:05.002Z,58.95
2018-06-03T19:01:33.840Z,59.65
2018-06-03T19:04:02.699Z,59.76
2018-06-03T19:06:31.544Z,60.34
2018-06-03T19:09:00.484Z,61.06
2018-06-03T19:11:29.313Z,61.53
2018-06-03T19:13:58.303Z,61.76
2018-06-03T19:16:27.003Z,61.02
2018-06-03T19:18:55.860Z,61.85
2018-06-03T19:21:24.704Z,62.15
2018-06-03T19:23:53.544Z,61.98
2018-06-03T19:26:22.639Z,62.07
2018-06-03T19:28:51.490Z,62.24
2018-06-03T19:31:20.363Z,61.88
2018-06-03T19:33:49.191Z,62.14
2018-06-03T19:36:18.044Z,62.10
2018-06-03T19:38:46.879Z,62.18
2018-06-03T19:41:15.731Z,62.83
2018-06-03T19:43:44.539Z,62.82
2018-06-03T19:46:13.420Z,63.38
2018-06-03T19:48:42.241Z,63.37
2018-06-03T19:51:11.074Z,63.39
2018-06-03T19:53:39.919Z,63.53
2018-06-03T19:56:08.720Z,64.19
2018-06-03T19:58:37.588Z,64.25
2018-06-03T20:01:06.405Z,64.28
2018-06-03T20:03:35.290Z,63.63
2018-06-03T20:06:04.063Z,64.43
2018-06-03T20:08:32.902Z,64.56
2018-06-03T20:11:01.720Z,64.91
2018-06-03T20:13:30.544Z,64.77
2018-06-03T20:15:59.599Z,64.91
2018-06-03T20:18:28.435Z,65.02
2018-06-03T20:20:57.255Z,65.24
2018-06-03T20:23:26.272Z,65.70
2018-06-03T20:25:55.114Z,65.98
2018-06-03T20:28:23.972Z,65.85
2018-06-03T20:30:52.807Z,65.86
2018-06-03T20:33:21.655Z,66.01
2018-06-03T20:35:50.563Z,66.10
2018-06-03T20:38:19.425Z,66.80
2018-06-03T20:40:48.274Z,67.43
2018-06-03T20:43:17.333Z,67.66
2018-06-03T20:45:46.160Z,68.39
2018-06-03T20:48:15.293Z,68.52
2018-06-03T20:50:44.149Z,68.54
2018-06-03T20:53:12.986Z,68.92
2018-06-03T20:55:41.971Z,69.36
2018-06-03T20:58:10.784Z,69.41
2018-06-03T21:00:39.700Z,69.43
2018-06-03T21:03:08.527Z,69.78
2018-06-03T21:05:37.373Z,69.97
2018-06-03T21:08:06.540Z,70.32
2018-06-03T21:10:35.368Z,70.18
2018-06-03T21:13:04.221Z,70.46
2018-06-03T21:15:33.099Z,70.52
2018-06-03T21:18:01.972Z,70.92
2018-06-03T21:20:30.923Z,71.52
2018-06-03T21:22:59.766Z,71.77
2018-06-03T21:25:28.610Z,72.34
2018-06-03T21:27:57.469Z,72.34
2018-06-03T21:30:26.323Z,72.90
2018-06-03T21:32:55.164Z,73.16
2018-06-03T21:35:24.016Z,73.58
2018-06-03T21:37:52.854Z,73.50
2018-06-03T21:40:21.716Z,73.24
2018-06-03T21:42:50.530Z,73.33
2018-06-03T21:45:19.367Z,73.61
2018-06-03T21:47:48.211Z,74.12
2018-06-03T21:50:17.044Z,74.12
2018-06-03T21:52:45.875Z,74.24
2018-06-03T21:55:14.753Z,74.59
2018-06-03T21:57:43.574Z,74.62
2018-06-03T22:00:12.424Z,74.56
2018-06-03T22:02:41.260Z,74.79
2018-06-03T22:05:11.257Z,74.83
2018-06-03T22:07:40.195Z,74.28
2018-06-03T22:10:08.985Z,75.17
2018-06-03T22:12:37.819Z,75.02
2018-06-03T22:15:06.669Z,75.15
2018-06-03T22:17:35.508Z,75.15
2018-06-03T22:20:04.384Z,75.25
2018-06-03T22:22:33.232Z,75.48
2018-06-03T22:25:02.079Z,75.48
2018-06-03T22:27:30.911Z,75.82
2018-06-03T22:29:59.770Z,75.89
2018-06-03T22:32:28.596Z,75.83
2018-06-03T22:34:57.436Z,75.84
2018-06-03T22:37:26.357Z,75.84
2018-06-03T22:39:55.171Z,76.30
2018-06-03T22:42:23.998Z,76.48
2018-06-03T22:44:52.845Z,75.47
2018-06-03T22:47:21.710Z,76.36
2018-06-03T22:49:50.555Z,76.44
2018-06-03T22:52:19.421Z,76.18
2018-06-03T22:54:48.250Z,76.41
2018-06-03T22:57:49.265Z,76.22
2018-06-03T23:00:35.445Z,76.13
2018-06-03T23:03:16.835Z,76.15
2018-06-03T23:05:45.690Z,76.53
2018-06-03T23:08:14.546Z,76.47
2018-06-03T23:10:43.367Z,76.38
2018-06-03T23:13:12.203Z,76.40
2018-06-03T23:15:41.085Z,75.52
2018-06-03T23:18:09.925Z,75.33
2018-06-03T23:20:38.764Z,76.58
2018-06-03T23:23:07.606Z,76.31
2018-06-03T23:25:36.438Z,76.06
2018-06-03T23:28:05.467Z,76.03
2018-06-03T23:30:34.300Z,76.14
2018-06-03T23:33:03.134Z,76.18
2018-06-03T23:35:31.973Z,76.66
2018-06-03T23:38:00.807Z,76.33
2018-06-03T23:40:29.652Z,76.55
2018-06-03T23:42:58.486Z,76.91
2018-06-03T23:45:27.350Z,77.08
2018-06-03T23:47:56.198Z,77.38
2018-06-03T23:50:25.035Z,77.10
2018-06-03T23:52:53.902Z,75.76
2018-06-03T23:55:22.760Z,76.85
2018-06-03T23:57:51.624Z,77.13
